Time;durP1;ratioP1;P1;durP2;ratioP2;P2;SDS_P1;SDS_P2;PMS_P1;PMS_P2;Temp;Humidity;BMP_temperature;BMP_pressure;BME280_temperature;BME280_humidity;BME280_pressure;Samples;Min_cycle;Max_cycle;Signal;HPM_P1;HPM_P2
2022/03/24 00:02:23;;;;;;;59.80;33.53;;;2.00;99.90;;;;;;5090112;28;20044;-48
2022/03/24 00:04:48;;;;;;;54.20;32.00;;;2.00;99.90;;;;;;5090210;28;20048;-51
2022/03/24 00:07:14;;;;;;;53.83;32.60;;;2.00;99.90;;;;;;5090025;28;20036;-48
2022/03/24 00:09:40;;;;;;;52.00;31.35;;;1.90;99.90;;;;;;5089982;28;20047;-49
2022/03/24 00:12:06;;;;;;;57.53;33.55;;;1.90;99.90;;;;;;5089998;28;20079;-49
2022/03/24 00:14:32;;;;;;;55.85;33.50;;;1.90;99.90;;;;;;5071378;28;20044;-48
2022/03/24 00:16:58;;;;;;;63.92;33.95;;;1.90;99.90;;;;;;5089199;28;20431;-50
2022/03/24 00:19:24;;;;;;;65.85;34.20;;;1.90;99.90;;;;;;5089677;28;20123;-48
2022/03/24 00:21:50;;;;;;;57.05;34.78;;;1.90;99.90;;;;;;5089911;28;20042;-49
2022/03/24 00:24:16;;;;;;;69.05;37.83;;;1.80;99.90;;;;;;5089908;28;20036;-50
2022/03/24 00:26:42;;;;;;;59.45;35.97;;;1.80;99.90;;;;;;5088890;28;20497;-48
2022/03/24 00:29:09;;;;;;;66.45;36.33;;;1.90;99.90;;;;;;5090013;28;20047;-51
2022/03/24 00:31:35;;;;;;;66.25;38.40;;;4.00;99.90;;;;;;5089425;28;20481;-48
2022/03/24 00:34:01;;;;;;;67.55;36.85;;;2.00;99.90;;;;;;5089762;28;20040;-49
2022/03/24 00:36:27;;;;;;;58.10;35.47;;;1.90;99.90;;;;;;5089284;28;20040;-49
2022/03/24 00:38:53;;;;;;;60.95;33.67;;;1.90;99.90;;;;;;5088777;28;20100;-48
2022/03/24 00:41:20;;;;;;;64.93;36.25;;;1.90;99.90;;;;;;5089338;28;20052;-48
2022/03/24 00:43:48;;;;;;;58.75;33.83;;;1.80;99.90;;;;;;5089080;28;20687;-49
2022/03/24 00:46:15;;;;;;;62.13;33.97;;;1.80;99.90;;;;;;5089675;28;20706;-50
2022/03/24 00:48:41;;;;;;;66.63;37.97;;;1.70;99.90;;;;;;5089510;28;20366;-49
2022/03/24 00:51:07;;;;;;;67.10;36.25;;;1.70;99.90;;;;;;5089338;28;20043;-49
2022/03/24 00:53:32;;;;;;;61.72;33.67;;;1.70;99.90;;;;;;5088716;28;20052;-49
2022/03/24 00:55:59;;;;;;;52.38;30.27;;;1.60;99.90;;;;;;5089369;28;20036;-49
2022/03/24 00:58:25;;;;;;;55.17;29.10;;;1.60;99.90;;;;;;5089369;28;20040;-50
2022/03/24 01:00:53;;;;;;;56.88;29.20;;;1.50;99.90;;;;;;5089113;28;20447;-48
2022/03/24 01:03:19;;;;;;;48.00;28.02;;;1.50;99.90;;;;;;5088946;28;20532;-51
2022/03/24 01:05:47;;;;;;;60.13;34.35;;;1.50;99.90;;;;;;5088936;28;20113;-49
2022/03/24 01:08:13;;;;;;;58.88;32.83;;;1.50;99.90;;;;;;5088363;28;20055;-49
2022/03/24 01:10:39;;;;;;;56.60;32.25;;;1.50;99.90;;;;;;5088062;28;20109;-47
2022/03/24 01:13:05;;;;;;;58.35;32.05;;;1.40;99.90;;;;;;5088017;28;20490;-49
2022/03/24 01:15:31;;;;;;;55.75;32.33;;;1.40;99.90;;;;;;5088394;28;20039;-48
2022/03/24 01:18:00;;;;;;;63.38;32.25;;;1.40;99.90;;;;;;5088230;28;20040;-51
2022/03/24 01:20:28;;;;;;;60.20;33.10;;;1.30;99.90;;;;;;5089214;28;20044;-49
2022/03/24 01:22:54;;;;;;;55.33;31.40;;;1.30;99.90;;;;;;5088671;28;20043;-48
2022/03/24 01:25:19;;;;;;;57.97;33.10;;;1.20;99.90;;;;;;5089050;28;20089;-51
2022/03/24 01:27:46;;;;;;;59.47;33.03;;;1.60;99.90;;;;;;5088950;28;20040;-50
2022/03/24 01:30:12;;;;;;;65.38;34.75;;;1.20;99.90;;;;;;5088833;28;20052;-52
2022/03/24 01:32:38;;;;;;;61.90;32.83;;;1.20;99.90;;;;;;5088603;28;20055;-52
2022/03/24 01:35:07;;;;;;;64.25;34.22;;;1.20;99.90;;;;;;5088944;28;20040;-51
2022/03/24 01:37:36;;;;;;;69.00;37.47;;;1.20;99.90;;;;;;5088859;28;20040;-50
2022/03/24 01:40:05;;;;;;;67.80;36.97;;;1.20;99.90;;;;;;5089402;28;20047;-51
2022/03/24 01:42:34;;;;;;;71.13;37.83;;;1.10;99.90;;;;;;5089051;28;20044;-49
2022/03/24 01:45:00;;;;;;;68.03;36.80;;;1.10;99.90;;;;;;5088456;28;20588;-51
2022/03/24 01:47:26;;;;;;;71.75;37.65;;;1.00;99.90;;;;;;5089133;28;20093;-52
2022/03/24 01:49:53;;;;;;;62.53;34.38;;;1.00;99.90;;;;;;5088497;28;20048;-51
2022/03/24 01:52:19;;;;;;;66.32;36.85;;;1.00;99.90;;;;;;5088499;28;20174;-51
2022/03/24 01:54:53;;;;;;;68.32;36.33;;;1.00;99.90;;;;;;5088453;28;20051;-51
2022/03/24 01:57:20;;;;;;;74.05;37.38;;;0.90;99.90;;;;;;5088347;28;20085;-50
2022/03/24 01:59:45;;;;;;;64.68;36.00;;;0.90;99.90;;;;;;5087927;28;20482;-51
2022/03/24 02:02:11;;;;;;;67.72;35.25;;;0.90;99.90;;;;;;5088388;28;20080;-52
2022/03/24 02:04:38;;;;;;;68.75;35.67;;;0.80;99.90;;;;;;5088640;28;20047;-49
2022/03/24 02:07:05;;;;;;;76.03;39.17;;;0.80;99.90;;;;;;5088229;28;20036;-52
2022/03/24 02:09:35;;;;;;;74.07;37.58;;;0.70;99.90;;;;;;5088809;28;20040;-48
2022/03/24 02:12:03;;;;;;;63.42;32.72;;;0.70;99.90;;;;;;5088065;28;20047;-48
2022/03/24 02:14:29;;;;;;;56.67;30.73;;;0.70;99.90;;;;;;5088532;28;20046;-49
2022/03/24 02:16:56;;;;;;;66.50;35.75;;;0.70;99.90;;;;;;5088148;28;20031;-48
2022/03/24 02:19:23;;;;;;;71.75;36.88;;;0.40;99.90;;;;;;5088128;28;20043;-49
2022/03/24 02:21:51;;;;;;;83.57;42.83;;;0.60;99.90;;;;;;5088033;28;20043;-51
2022/03/24 02:24:19;;;;;;;79.03;39.22;;;0.60;99.90;;;;;;5087674;28;20055;-48
2022/03/24 02:26:46;;;;;;;64.88;34.22;;;0.60;99.90;;;;;;5087992;28;20048;-52
2022/03/24 02:29:13;;;;;;;73.93;37.75;;;0.60;99.90;;;;;;5070048;28;20051;-48
2022/03/24 02:31:49;;;;;;;61.63;32.13;;;0.50;99.90;;;;;;5086731;28;20394;-51
2022/03/24 02:34:37;;;;;;;65.28;35.08;;;0.50;99.90;;;;;;5088466;28;20043;-48
2022/03/24 02:37:06;;;;;;;51.72;25.65;;;0.40;99.90;;;;;;5087882;28;20313;-49
2022/03/24 02:39:32;;;;;;;59.20;28.98;;;0.40;99.90;;;;;;5088173;28;20045;-50
2022/03/24 02:42:00;;;;;;;54.78;28.35;;;0.40;99.90;;;;;;5087294;28;20051;-47
2022/03/24 02:44:28;;;;;;;45.38;25.70;;;0.30;99.90;;;;;;5087177;28;20040;-48
2022/03/24 02:46:55;;;;;;;55.85;29.45;;;0.30;99.90;;;;;;5087272;28;20044;-47
2022/03/24 02:49:23;;;;;;;42.50;24.35;;;0.30;99.90;;;;;;5089156;28;20115;-48
2022/03/24 02:51:53;;;;;;;45.63;23.02;;;0.30;99.90;;;;;;5090716;28;20040;-48
2022/03/24 02:54:21;;;;;;;37.25;20.95;;;0.30;99.90;;;;;;5091610;28;20115;-49
2022/03/24 02:56:47;;;;;;;24.30;16.20;;;0.20;99.90;;;;;;5091615;28;20485;-49
2022/03/24 02:59:13;;;;;;;24.48;16.33;;;1.10;99.90;;;;;;5091961;28;20040;-48
2022/03/24 03:01:45;;;;;;;22.25;15.68;;;0.30;99.90;;;;;;5091767;28;20052;-49
2022/03/24 03:04:12;;;;;;;32.35;19.35;;;0.20;99.90;;;;;;5092069;28;20048;-49
2022/03/24 03:06:38;;;;;;;53.28;27.48;;;0.10;99.90;;;;;;5091439;28;20043;-49
2022/03/24 03:09:05;;;;;;;52.42;27.95;;;0.10;99.90;;;;;;5090969;28;20039;-47
2022/03/24 03:11:31;;;;;;;59.00;28.52;;;0.00;99.90;;;;;;5090627;28;20036;-48
2022/03/24 03:13:58;;;;;;;65.88;31.30;;;0.00;99.90;;;;;;5089984;28;20056;-48
2022/03/24 03:16:24;;;;;;;67.13;33.95;;;0.00;99.90;;;;;;5091059;28;20051;-49
2022/03/24 03:18:49;;;;;;;69.63;34.00;;;0.00;99.90;;;;;;5090416;28;20036;-47
2022/03/24 03:21:16;;;;;;;64.70;29.85;;;0.00;99.90;;;;;;5090707;28;20036;-47
2022/03/24 03:23:43;;;;;;;63.25;30.42;;;0.00;99.90;;;;;;5090670;28;20087;-51
2022/03/24 03:26:11;;;;;;;70.32;32.78;;;0.00;99.90;;;;;;5091017;28;20044;-48
2022/03/24 03:28:37;;;;;;;76.82;35.33;;;0.00;99.90;;;;;;5090798;28;20040;-50
2022/03/24 03:31:05;;;;;;;65.45;31.67;;;0.00;99.90;;;;;;5090693;28;20055;-48
2022/03/24 03:33:31;;;;;;;76.18;37.38;;;0.00;99.90;;;;;;5090629;28;20493;-49
2022/03/24 03:35:57;;;;;;;87.93;39.88;;;-0.10;99.90;;;;;;5090952;28;20032;-47
2022/03/24 03:38:24;;;;;;;108.18;42.70;;;0.00;99.90;;;;;;5091175;28;20040;-52
2022/03/24 03:40:52;;;;;;;75.55;35.40;;;0.00;99.90;;;;;;5090511;28;20051;-49
2022/03/24 03:43:18;;;;;;;95.40;42.20;;;0.00;99.90;;;;;;5089665;28;20051;-48
2022/03/24 03:45:44;;;;;;;94.97;41.70;;;0.00;99.90;;;;;;5090755;28;20046;-49
2022/03/24 03:48:11;;;;;;;108.30;48.15;;;0.00;99.90;;;;;;5090736;28;20154;-50
2022/03/24 03:50:37;;;;;;;105.90;45.67;;;0.00;99.90;;;;;;5090724;28;20044;-48
2022/03/24 03:53:03;;;;;;;121.90;48.17;;;-0.10;99.90;;;;;;5072117;28;20574;-50
2022/03/24 03:55:30;;;;;;;117.18;51.30;;;-0.10;99.90;;;;;;5090350;28;20047;-49
2022/03/24 03:57:56;;;;;;;117.05;44.35;;;0.00;99.90;;;;;;5090442;28;20044;-52
2022/03/24 04:03:07;;;;;;;108.38;46.35;;;-0.10;99.90;;;;;;5090411;28;20139;-48
2022/03/24 04:05:33;;;;;;;101.05;43.33;;;-0.10;99.90;;;;;;5090348;28;20518;-49
2022/03/24 04:08:03;;;;;;;94.63;41.65;;;-0.10;99.90;;;;;;5090109;28;20036;-49
2022/03/24 04:10:30;;;;;;;86.00;40.63;;;-0.20;99.90;;;;;;5089949;28;20101;-51
2022/03/24 04:12:57;;;;;;;85.32;39.30;;;-0.20;99.90;;;;;;5090012;28;20044;-48
2022/03/24 04:15:23;;;;;;;86.65;37.78;;;-0.20;99.90;;;;;;5090282;28;20603;-52
2022/03/24 04:17:50;;;;;;;74.47;35.38;;;-0.20;99.90;;;;;;5072198;28;20066;-48
2022/03/24 04:20:20;;;;;;;69.43;32.15;;;-0.30;99.90;;;;;;5090304;28;20123;-48
2022/03/24 04:22:50;;;;;;;78.25;34.97;;;-0.40;99.90;;;;;;5090119;28;20055;-52
2022/03/24 04:25:21;;;;;;;74.15;34.30;;;-0.40;99.90;;;;;;5090105;28;20040;-51
2022/03/24 04:27:48;;;;;;;80.65;38.20;;;-0.40;99.90;;;;;;5090410;28;20040;-49
2022/03/24 04:30:14;;;;;;;85.68;39.33;;;-0.40;99.90;;;;;;5090074;28;20087;-48
2022/03/24 04:32:41;;;;;;;80.13;38.28;;;-0.50;99.90;;;;;;5090355;28;20047;-47
2022/03/24 04:35:08;;;;;;;80.93;38.33;;;-0.50;99.90;;;;;;5089914;28;20111;-52
2022/03/24 04:37:35;;;;;;;76.65;34.88;;;-0.40;99.90;;;;;;5089955;28;20040;-49
2022/03/24 04:40:01;;;;;;;64.25;30.92;;;-0.50;99.90;;;;;;5089478;28;20035;-49
2022/03/24 04:42:27;;;;;;;66.10;31.95;;;-0.50;99.90;;;;;;5089756;28;20075;-48
2022/03/24 04:44:53;;;;;;;66.07;31.02;;;-0.60;99.90;;;;;;5089372;28;20048;-48
2022/03/24 04:47:18;;;;;;;61.67;30.35;;;-0.60;99.90;;;;;;5088999;28;20098;-50
2022/03/24 04:49:44;;;;;;;54.53;26.80;;;-0.60;99.90;;;;;;5089299;28;20036;-49
2022/03/24 04:52:10;;;;;;;60.40;29.90;;;-0.60;99.90;;;;;;5087481;28;20056;-48
2022/03/24 04:54:35;;;;;;;54.20;27.63;;;-0.70;99.90;;;;;;5089424;28;20087;-50
2022/03/24 04:57:01;;;;;;;50.63;27.05;;;-0.70;99.90;;;;;;5089243;28;20115;-48
2022/03/24 04:59:27;;;;;;;46.25;25.27;;;-0.80;99.90;;;;;;5089683;28;20071;-49
2022/03/24 05:01:53;;;;;;;43.75;24.13;;;-0.80;99.90;;;;;;5089267;28;20127;-48
2022/03/24 05:04:19;;;;;;;39.42;22.67;;;-0.90;99.90;;;;;;5089041;28;20568;-49
2022/03/24 05:06:44;;;;;;;28.58;19.08;;;-0.80;99.90;;;;;;5089126;28;20123;-48
2022/03/24 05:09:11;;;;;;;31.17;19.10;;;-0.80;99.90;;;;;;5089332;28;20079;-47
2022/03/24 05:11:36;;;;;;;28.25;18.70;;;-0.80;99.90;;;;;;5089184;28;20106;-47
2022/03/24 05:14:02;;;;;;;40.65;23.15;;;-0.70;99.90;;;;;;5089150;28;20040;-48
2022/03/24 05:16:28;;;;;;;32.90;19.63;;;-0.70;99.90;;;;;;5089319;28;20044;-48
2022/03/24 05:18:54;;;;;;;36.35;20.70;;;-0.80;99.90;;;;;;5089277;28;20075;-47
2022/03/24 05:21:20;;;;;;;35.83;21.05;;;-0.70;99.90;;;;;;5089103;28;20090;-49
2022/03/24 05:23:46;;;;;;;42.20;22.73;;;-1.00;99.90;;;;;;5088499;28;20066;-50
2022/03/24 05:26:12;;;;;;;37.03;22.15;;;-0.80;99.90;;;;;;5088538;28;20090;-49
2022/03/24 05:28:38;;;;;;;48.08;24.80;;;-0.80;99.90;;;;;;5088892;28;20051;-48
2022/03/24 05:31:04;;;;;;;46.35;26.10;;;-0.90;99.90;;;;;;5088752;28;20076;-49
2022/03/24 05:33:30;;;;;;;44.80;24.35;;;-0.90;99.90;;;;;;5088418;28;20044;-48
2022/03/24 05:35:56;;;;;;;44.83;26.63;;;-0.80;99.90;;;;;;5088773;28;20097;-48
2022/03/24 05:38:22;;;;;;;55.55;28.25;;;-0.80;99.90;;;;;;5088882;28;20120;-50
2022/03/24 05:40:47;;;;;;;45.67;26.60;;;-0.70;99.90;;;;;;5088832;28;20044;-48
2022/03/24 05:43:13;;;;;;;43.35;24.88;;;-0.60;99.90;;;;;;5088786;28;20079;-49
2022/03/24 05:45:39;;;;;;;42.13;25.48;;;-0.40;99.90;;;;;;5070623;28;20058;-47
2022/03/24 05:48:05;;;;;;;43.42;25.90;;;-0.30;99.90;;;;;;5088852;28;20044;-48
2022/03/24 05:50:31;;;;;;;61.97;32.25;;;0.00;99.90;;;;;;5088760;28;20039;-48
2022/03/24 05:52:57;;;;;;;54.58;28.95;;;0.20;99.90;;;;;;5088494;28;20690;-48
2022/03/24 05:55:23;;;;;;;45.00;27.60;;;0.50;99.90;;;;;;5088593;28;20060;-50
2022/03/24 05:57:49;;;;;;;45.00;26.92;;;0.60;99.90;;;;;;5088645;28;20040;-49
2022/03/24 06:00:15;;;;;;;58.35;31.67;;;1.00;99.90;;;;;;5088454;28;20039;-49
2022/03/24 06:02:43;;;;;;;47.42;28.55;;;1.40;99.90;;;;;;5088668;28;20043;-49
2022/03/24 06:05:11;;;;;;;50.28;31.25;;;1.80;99.90;;;;;;5088553;28;20093;-48
2022/03/24 06:07:37;;;;;;;39.20;26.58;;;2.20;99.90;;;;;;5088378;28;20040;-50
2022/03/24 06:10:03;;;;;;;27.65;20.67;;;2.70;99.90;;;;;;5088326;28;20524;-49
2022/03/24 06:12:31;;;;;;;25.05;20.05;;;3.20;99.90;;;;;;5088418;28;20387;-48
2022/03/24 06:14:57;;;;;;;27.02;19.95;;;3.60;99.90;;;;;;5088715;28;20056;-47
2022/03/24 06:17:23;;;;;;;20.92;16.92;;;4.00;99.90;;;;;;5088602;28;20042;-48
2022/03/24 06:19:49;;;;;;;21.98;17.05;;;4.40;99.90;;;;;;5088525;28;20032;-48
2022/03/24 06:22:16;;;;;;;27.27;19.75;;;4.80;99.90;;;;;;5088341;28;20044;-48
2022/03/24 06:24:42;;;;;;;23.33;16.92;;;4.90;99.90;;;;;;5091359;28;20675;-48
2022/03/24 06:27:08;;;;;;;38.22;24.92;;;4.90;99.90;;;;;;5092656;28;20135;-48
2022/03/24 06:29:35;;;;;;;42.50;27.42;;;5.60;99.90;;;;;;5092465;28;20121;-48
2022/03/24 06:32:01;;;;;;;43.70;27.60;;;5.00;99.90;;;;;;5092375;28;20047;-48
2022/03/24 06:34:27;;;;;;;35.03;24.42;;;5.00;99.90;;;;;;5074040;28;20097;-48
2022/03/24 06:36:54;;;;;;;33.70;21.95;;;5.10;99.90;;;;;;5091928;28;20071;-47
2022/03/24 06:39:20;;;;;;;28.52;20.17;;;5.10;99.90;;;;;;5091750;28;20080;-51
2022/03/24 06:41:46;;;;;;;26.80;19.73;;;5.10;99.90;;;;;;5092078;28;20047;-49
2022/03/24 06:44:12;;;;;;;33.67;22.38;;;5.00;99.90;;;;;;5092360;28;20047;-48
2022/03/24 06:46:38;;;;;;;41.03;27.35;;;5.10;99.90;;;;;;5091613;28;20574;-49
2022/03/24 06:49:05;;;;;;;43.25;28.25;;;5.00;99.90;;;;;;5092137;28;20048;-48
2022/03/24 06:51:31;;;;;;;44.33;27.98;;;5.10;99.90;;;;;;5091338;28;20040;-51
2022/03/24 06:53:58;;;;;;;46.67;29.60;;;5.10;99.90;;;;;;5091813;28;20718;-49
2022/03/24 06:56:24;;;;;;;50.92;32.08;;;5.10;99.90;;;;;;5091782;28;20394;-50
2022/03/24 06:58:50;;;;;;;47.45;31.02;;;5.10;99.90;;;;;;5092070;28;20047;-50
2022/03/24 07:01:19;;;;;;;50.08;29.85;;;5.40;99.90;;;;;;5091501;28;20113;-48
2022/03/24 07:03:45;;;;;;;50.50;31.25;;;5.80;99.90;;;;;;5091710;28;20044;-51
2022/03/24 07:06:11;;;;;;;47.50;31.67;;;6.10;99.90;;;;;;5091677;28;20058;-49
2022/03/24 07:08:37;;;;;;;56.40;35.53;;;7.50;99.90;;;;;;5090874;28;20047;-49
2022/03/24 07:11:04;;;;;;;55.00;35.47;;;6.90;99.90;;;;;;5091088;28;20040;-47
2022/03/24 07:13:30;;;;;;;77.80;46.95;;;7.00;99.90;;;;;;5091151;28;20055;-51
2022/03/24 07:15:56;;;;;;;68.88;45.65;;;7.50;99.90;;;;;;5091102;28;20036;-48
2022/03/24 07:18:22;;;;;;;68.10;48.20;;;8.00;99.90;;;;;;5090490;28;20040;-48
2022/03/24 07:20:49;;;;;;;71.03;47.17;;;8.80;99.90;;;;;;5091211;28;20040;-48
2022/03/24 07:23:14;;;;;;;72.45;48.10;;;8.30;99.90;;;;;;5091372;28;20040;-51
2022/03/24 07:25:40;;;;;;;69.65;46.13;;;8.00;99.90;;;;;;5090951;28;20115;-49
2022/03/24 07:28:07;;;;;;;70.80;45.97;;;8.30;99.90;;;;;;5091129;28;20119;-47
2022/03/24 07:30:33;;;;;;;73.25;47.80;;;8.10;99.90;;;;;;5090519;28;20107;-47
2022/03/24 07:33:00;;;;;;;67.63;47.28;;;8.50;99.90;;;;;;5090096;28;20478;-51
2022/03/24 07:35:28;;;;;;;73.10;46.00;;;9.60;99.90;;;;;;5090399;28;20044;-52
2022/03/24 07:37:54;;;;;;;68.72;46.40;;;8.90;99.90;;;;;;5072418;28;20084;-48
2022/03/24 07:40:21;;;;;;;70.18;45.63;;;9.00;99.90;;;;;;5090512;28;20076;-50
2022/03/24 07:42:52;;;;;;;65.93;44.15;;;9.00;99.90;;;;;;5090730;28;20046;-48
2022/03/24 07:45:19;;;;;;;66.70;45.13;;;9.10;99.90;;;;;;5090632;28;20055;-48
2022/03/24 07:48:11;;;;;;;70.28;45.58;;;9.70;99.90;;;;;;5090551;28;20036;-48
2022/03/24 07:50:41;;;;;;;63.45;43.03;;;9.60;99.90;;;;;;5090418;28;20070;-51
2022/03/24 07:53:17;;;;;;;66.43;43.17;;;9.90;99.90;;;;;;5090335;28;20113;-49
2022/03/24 07:55:45;;;;;;;67.22;44.17;;;10.00;99.90;;;;;;5090031;28;20036;-48
2022/03/24 07:58:12;;;;;;;62.55;43.97;;;10.50;99.90;;;;;;5090073;28;20040;-48
2022/03/24 08:00:39;;;;;;;62.38;42.95;;;10.50;99.90;;;;;;5089617;28;20048;-48
2022/03/24 08:03:12;;;;;;;62.90;42.20;;;10.50;99.90;;;;;;5090195;28;20044;-50
2022/03/24 08:05:38;;;;;;;61.58;40.22;;;10.40;99.90;;;;;;5072169;28;20354;-52
2022/03/24 08:08:05;;;;;;;56.13;38.63;;;10.40;99.90;;;;;;5089441;28;20058;-48
2022/03/24 08:10:30;;;;;;;57.33;39.42;;;10.60;99.90;;;;;;5089633;28;20036;-48
2022/03/24 08:12:56;;;;;;;59.25;38.83;;;11.00;99.90;;;;;;5089854;28;20101;-48
2022/03/24 08:15:22;;;;;;;52.03;36.08;;;11.00;99.90;;;;;;5069221;28;20044;-48
2022/03/24 08:17:48;;;;;;;49.47;35.95;;;11.50;99.90;;;;;;5089079;28;20040;-47
2022/03/24 08:20:14;;;;;;;51.92;36.63;;;11.90;99.90;;;;;;5088805;28;20043;-49
2022/03/24 08:22:39;;;;;;;52.63;36.13;;;12.30;99.90;;;;;;5089316;28;20545;-49
2022/03/24 08:25:08;;;;;;;47.13;33.80;;;12.80;98.80;;;;;;5089354;28;20044;-48
2022/03/24 08:27:35;;;;;;;50.25;33.17;;;12.70;97.60;;;;;;5089017;28;20123;-47
2022/03/24 08:30:02;;;;;;;47.50;32.80;;;13.00;96.40;;;;;;5071341;28;20105;-50
2022/03/24 08:32:27;;;;;;;49.95;33.80;;;13.40;95.20;;;;;;5088987;28;20051;-48
2022/03/24 08:34:53;;;;;;;53.83;32.75;;;13.70;94.00;;;;;;5089431;28;20032;-49
2022/03/24 08:37:19;;;;;;;47.38;32.58;;;13.90;93.20;;;;;;5089768;28;20062;-50
2022/03/24 08:39:44;;;;;;;44.67;31.33;;;14.40;92.60;;;;;;5089156;28;20587;-49
2022/03/24 08:42:10;;;;;;;47.28;32.20;;;14.90;90.80;;;;;;5089572;28;20168;-49
2022/03/24 08:44:36;;;;;;;46.03;29.98;;;15.60;89.90;;;;;;5089220;28;20048;-48
2022/03/24 08:47:02;;;;;;;43.25;28.63;;;16.80;86.90;;;;;;5087606;28;20052;-51
2022/03/24 08:49:28;;;;;;;43.75;27.48;;;17.50;82.50;;;;;;5089558;28;20146;-49
2022/03/24 08:51:54;;;;;;;44.03;30.10;;;18.70;78.50;;;;;;5089080;28;20127;-48
2022/03/24 08:54:19;;;;;;;42.63;30.10;;;19.80;73.80;;;;;;5089139;28;20064;-50
2022/03/24 08:56:45;;;;;;;39.17;28.33;;;20.50;71.80;;;;;;5088888;28;20044;-48
2022/03/24 08:59:11;;;;;;;38.80;27.35;;;20.50;68.90;;;;;;5089157;28;20044;-50
2022/03/24 09:01:38;;;;;;;42.97;29.10;;;21.10;68.20;;;;;;5089025;28;20044;-51
2022/03/24 09:04:03;;;;;;;35.60;26.80;;;22.10;66.50;;;;;;5088657;28;20161;-49
2022/03/24 09:06:29;;;;;;;36.38;29.00;;;23.20;63.90;;;;;;5084650;28;20181;-47
2022/03/24 09:08:55;;;;;;;40.75;29.85;;;24.30;62.30;;;;;;5085737;28;20036;-46
2022/03/24 09:11:21;;;;;;;48.20;31.23;;;24.90;58.40;;;;;;5088185;28;20414;-45
2022/03/24 09:13:47;;;;;;;40.00;30.73;;;25.30;55.30;;;;;;5088772;28;20427;-45
2022/03/24 09:16:12;;;;;;;37.80;30.27;;;25.90;54.40;;;;;;5088655;28;20113;-43
2022/03/24 09:18:38;;;;;;;38.08;28.80;;;26.40;53.50;;;;;;5088543;28;20047;-50
2022/03/24 09:21:04;;;;;;;36.00;29.73;;;26.90;52.10;;;;;;5088860;28;20036;-53
2022/03/24 09:23:29;;;;;;;38.85;31.00;;;27.50;50.70;;;;;;5088974;28;20483;-53
2022/03/24 09:25:56;;;;;;;35.80;28.33;;;27.70;49.50;;;;;;5088490;28;20047;-53
2022/03/24 09:28:24;;;;;;;41.45;30.38;;;27.50;48.20;;;;;;5088799;28;20044;-53
2022/03/24 09:30:50;;;;;;;33.38;25.65;;;27.20;48.10;;;;;;5088464;28;20051;-53
2022/03/24 09:33:32;;;;;;;;;;;27.20;47.40;;;;;;5089069;28;20040;-44
2022/03/24 09:35:58;;;;;;;39.20;27.42;;;27.60;49.40;;;;;;5088257;28;19972;-48
2022/03/24 09:38:23;;;;;;;37.13;27.17;;;27.90;48.20;;;;;;5088622;28;20450;-51
2022/03/24 09:40:50;;;;;;;36.60;28.85;;;28.40;47.00;;;;;;5088416;28;20474;-50
2022/03/24 09:43:32;;;;;;;40.90;30.08;;;28.30;45.50;;;;;;5088351;28;20467;-51
2022/03/24 09:45:58;;;;;;;35.05;29.30;;;27.80;44.60;;;;;;5088541;28;20036;-57
2022/03/24 09:48:24;;;;;;;38.75;28.40;;;27.60;45.50;;;;;;5088539;28;20048;-53
2022/03/24 09:50:49;;;;;;;41.63;29.23;;;27.10;45.30;;;;;;5087826;28;20040;-52
2022/03/24 09:53:16;;;;;;;40.33;28.83;;;26.60;45.90;;;;;;5087887;28;20063;-52
2022/03/24 09:55:43;;;;;;;38.05;29.02;;;26.40;45.30;;;;;;5088345;28;20044;-52
2022/03/24 09:58:09;;;;;;;37.42;28.52;;;27.00;45.60;;;;;;5088393;28;20047;-54
2022/03/24 10:00:47;;;;;;;37.22;30.33;;;27.20;44.30;;;;;;5092715;28;20040;-53
2022/03/24 10:03:21;;;;;;;41.90;29.48;;;26.90;43.50;;;;;;5091711;28;20702;-48
2022/03/24 10:06:07;;;;;;;36.25;28.65;;;26.70;43.40;;;;;;5092399;28;20074;-48
2022/03/24 10:08:35;;;;;;;38.78;27.45;;;27.00;43.60;;;;;;5092980;28;20055;-49
2022/03/24 10:11:09;;;;;;;40.65;28.85;;;27.30;43.60;;;;;;5074678;28;20091;-51
2022/03/24 10:13:53;;;;;;;36.42;28.75;;;27.50;42.50;;;;;;5092182;28;20039;-48
2022/03/24 10:16:34;;;;;;;39.17;28.40;;;27.80;41.60;;;;;;5092546;28;20039;-52
2022/03/24 10:19:03;;;;;;;38.95;28.60;;;28.10;42.80;;;;;;5090388;28;20439;-48
2022/03/24 10:21:30;;;;;;;35.92;28.02;;;28.40;41.90;;;;;;5092410;28;20032;-48
2022/03/24 10:24:00;;;;;;;35.55;25.98;;;28.60;40.80;;;;;;5091788;28;20393;-50
2022/03/24 10:26:46;;;;;;;40.13;28.58;;;28.70;41.00;;;;;;5092182;28;20470;-50
2022/03/24 10:29:20;;;;;;;37.72;28.20;;;28.70;39.60;;;;;;5092168;28;20044;-49
2022/03/24 10:31:51;;;;;;;31.98;24.83;;;28.60;39.10;;;;;;5091851;28;20050;-49
2022/03/24 10:34:31;;;;;;;36.28;26.40;;;28.40;38.70;;;;;;5092289;28;20760;-49
2022/03/24 10:36:57;;;;;;;34.30;24.70;;;28.10;38.70;;;;;;5091167;28;20173;-48
2022/03/24 10:39:28;;;;;;;32.83;25.65;;;28.20;40.00;;;;;;5092196;28;20035;-49
2022/03/24 10:42:08;;;;;;;;;;;28.80;39.30;;;;;;5091992;28;20040;-50
2022/03/24 10:44:34;;;;;;;41.60;25.25;;;29.10;38.70;;;;;;5092108;28;20004;-48
2022/03/24 10:47:00;;;;;;;37.22;24.73;;;29.20;38.90;;;;;;5091630;28;20501;-49
2022/03/24 10:49:29;;;;;;;37.42;24.67;;;28.90;37.10;;;;;;5091697;28;20048;-48
2022/03/24 10:51:55;;;;;;;37.15;24.02;;;27.90;37.20;;;;;;5073225;28;20102;-51
2022/03/24 10:54:47;;;;;;;34.88;23.85;;;26.60;38.30;;;;;;5090712;28;20087;-49
2022/03/24 10:57:13;;;;;;;;;;;25.30;39.90;;;;;;5092181;28;20040;-49
2022/03/24 10:59:46;;;;;;;36.05;24.88;;;24.20;41.00;;;;;;5091791;28;20393;-49
2022/03/24 11:02:13;;;;;;;33.00;21.90;;;23.30;41.20;;;;;;5091761;28;20036;-49
2022/03/24 11:04:39;;;;;;;35.75;22.73;;;22.50;42.20;;;;;;5091657;28;20116;-49
2022/03/24 11:07:05;;;;;;;32.58;22.38;;;21.80;42.90;;;;;;5091364;28;20055;-49
2022/03/24 11:09:33;;;;;;;36.55;23.30;;;21.10;43.40;;;;;;5091060;28;20390;-49
2022/03/24 11:12:27;;;;;;;33.63;22.52;;;20.60;44.00;;;;;;5090471;28;20048;-48
2022/03/24 11:15:01;;;;;;;33.88;23.27;;;20.20;44.70;;;;;;5090217;28;20521;-48
2022/03/24 11:17:30;;;;;;;37.55;23.25;;;19.90;45.50;;;;;;5090276;28;20517;-48
2022/03/24 11:20:07;;;;;;;35.72;21.83;;;19.70;45.70;;;;;;5090253;28;20040;-48
2022/03/24 11:22:58;;;;;;;33.83;21.90;;;19.50;46.70;;;;;;5091231;28;20050;-49
2022/03/24 11:25:26;;;;;;;33.85;21.73;;;19.30;46.70;;;;;;5091453;28;20050;-49
2022/03/24 11:27:56;;;;;;;38.40;24.40;;;19.10;46.60;;;;;;5091092;28;20063;-50
2022/03/24 11:30:23;;;;;;;33.13;22.27;;;18.90;46.90;;;;;;5091267;28;20054;-50
2022/03/24 11:32:51;;;;;;;31.17;21.77;;;18.70;46.90;;;;;;5090834;28;20268;-49
2022/03/24 11:35:17;;;;;;;30.77;23.15;;;18.50;47.30;;;;;;5090885;28;20482;-48
2022/03/24 11:37:43;;;;;;;37.80;22.63;;;18.30;48.20;;;;;;5091185;28;20035;-49
2022/03/24 11:40:19;;;;;;;32.92;22.52;;;18.20;50.00;;;;;;5090912;28;20036;-47
2022/03/24 11:42:49;;;;;;;31.75;20.60;;;18.20;50.60;;;;;;5090780;28;20210;-50
2022/03/24 11:45:45;;;;;;;31.30;21.45;;;18.20;50.90;;;;;;5090689;28;20130;-48
2022/03/24 11:48:12;;;;;;;29.55;18.77;;;18.30;50.40;;;;;;5089671;28;20112;-52
2022/03/24 11:50:52;;;;;;;30.92;19.73;;;18.30;51.00;;;;;;5089767;28;20044;-48
2022/03/24 11:53:24;;;;;;;31.95;20.00;;;18.30;50.70;;;;;;5089391;28;20391;-48
2022/03/24 11:55:59;;;;;;;32.55;19.98;;;18.30;49.80;;;;;;5090295;28;20101;-49
2022/03/24 11:59:06;;;;;;;31.20;19.50;;;18.20;49.10;;;;;;5090332;28;20044;-49
2022/03/24 12:01:33;;;;;;;33.20;19.30;;;18.20;50.90;;;;;;5090278;28;20075;-51
2022/03/24 12:04:09;;;;;;;34.38;21.48;;;18.20;50.00;;;;;;5090101;28;20429;-49
2022/03/24 12:06:41;;;;;;;32.15;20.75;;;18.20;50.70;;;;;;5090458;28;20039;-48
2022/03/24 12:09:08;;;;;;;;;;;18.10;50.00;;;;;;5090482;28;20048;-48
2022/03/24 12:11:33;;;;;;;30.67;18.02;;;18.20;49.50;;;;;;5090581;28;19924;-48
2022/03/24 12:14:01;;;;;;;32.17;17.48;;;18.20;50.80;;;;;;5090147;28;20051;-49
2022/03/24 12:16:28;;;;;;;27.90;16.98;;;18.10;50.90;;;;;;5090350;28;20119;-48
2022/03/24 12:18:55;;;;;;;29.30;17.85;;;18.10;51.30;;;;;;5090078;28;20047;-49
2022/03/24 12:21:26;;;;;;;31.52;17.88;;;18.10;50.70;;;;;;5089008;28;20048;-50
2022/03/24 12:24:19;;;;;;;35.42;19.52;;;18.10;50.30;;;;;;5090055;28;20159;-51
2022/03/24 12:26:59;;;;;;;32.58;20.05;;;18.10;50.30;;;;;;5089855;28;20044;-48
2022/03/24 12:29:27;;;;;;;31.42;19.40;;;18.00;50.30;;;;;;5088662;28;20048;-48
2022/03/24 12:31:56;;;;;;;29.40;19.33;;;17.90;50.60;;;;;;5089818;28;20044;-48
2022/03/24 12:34:43;;;;;;;27.27;18.10;;;18.00;51.60;;;;;;5089737;28;20035;-49
2022/03/24 12:37:27;;;;;;;31.35;17.65;;;18.00;52.80;;;;;;5089953;28;20382;-49
2022/03/24 12:40:09;;;;;;;31.33;18.23;;;18.00;51.50;;;;;;5089645;28;20118;-51
2022/03/24 12:42:52;;;;;;;30.73;18.27;;;18.00;51.00;;;;;;5089971;28;20371;-48